Neotsu, OR (97364)

11:28 AM PDT on August 29, 2016 (GMT -0700)
APRSWXNET | | Change Station

Elev 88 ft 45.01 °N, 124.01 °W | Updated 23 minutes ago

Overcast
Overcast
56 °F
Feels Like 56 °F
N
7
Wind Variable Wind from SSE
Gusts 13.0 mph

Today
High -- | Low -- °F
--% Chance of Precip.
Yesterday
High -- | Low -- °F
Precip. -- in
Pressure 30.14 in
Visibility 10.0 miles
Clouds Overcast 1200 ft
Dew Point 55 °F
Humidity 97%
Rainfall in
Snow Depth Not available.
6:35 AM 7:57 PM
Waning Crescent, 7% visible
METAR KONP 291815Z AUTO 22009KT 10SM OVC012 13/11 A3014 RMK AO2
Pressure 30.14 in
Visibility 10.0 miles
Clouds Overcast 1200 ft
Dew Point 55 °F
Humidity 97%
Rainfall in
Snow Depth Not available.
6:35 AM 7:57 PM
Waning Crescent, 7% visible
METAR KONP 291815Z AUTO 22009KT 10SM OVC012 13/11 A3014 RMK AO2

10-Day Weather Forecast

Almanac

Astronomy

Aug. 29, 2016 Rise Set
Actual Time
Civil Twilight
Nautical Twilight
Astronomical Twilight
Moon
Length of Visible Light
Length of Day
Tomorrow will be .
, % of the Moon is Illuminated

Today's Extremes

State Highs State Lows

Community

WunderPhotos

Upload Photos

1,935,684 photos uploaded!

WunderBlog® & News

Nearby

Air Quality

  Air Quality AQ Index Pollutant
Not available.

Snow Depth

Station Depth Elevation

Earthquake Activity

City Distance Mag. Time & Date
Minimum magnitude displayed is 2.5.

Coastal Water Temperatures

Place Temperature

Stations

Nearby Weather Stations

Station Location Temp. Windchill Dew Point Humidity Wind Precip. Elev Updated Type
                   

Watches & Warnings

There are currently no watches in effect.